sensor_id;sensor_type;location;lat;lon;timestamp;P1;durP1;ratioP1;P2;durP2;ratioP2
24421;SDS011;12600;53.326;-6.298;2023-05-10T00:01:17;10.55;;;2.13;;
24421;SDS011;12600;53.326;-6.298;2023-05-10T00:04:06;8.57;;;2.50;;
24421;SDS011;12600;53.326;-6.298;2023-05-10T00:06:55;9.70;;;2.30;;
24421;SDS011;12600;53.326;-6.298;2023-05-10T00:09:45;10.07;;;2.25;;
24421;SDS011;12600;53.326;-6.298;2023-05-10T00:12:34;10.27;;;2.45;;
24421;SDS011;12600;53.326;-6.298;2023-05-10T00:15:25;9.35;;;2.78;;
24421;SDS011;12600;53.326;-6.298;2023-05-10T00:18:14;11.95;;;2.92;;
24421;SDS011;12600;53.326;-6.298;2023-05-10T00:21:03;12.10;;;3.20;;
24421;SDS011;12600;53.326;-6.298;2023-05-10T00:23:53;7.82;;;2.33;;
24421;SDS011;12600;53.326;-6.298;2023-05-10T00:26:43;6.88;;;2.15;;
24421;SDS011;12600;53.326;-6.298;2023-05-10T00:29:32;15.85;;;2.35;;
24421;SDS011;12600;53.326;-6.298;2023-05-10T00:32:23;10.70;;;2.55;;
24421;SDS011;12600;53.326;-6.298;2023-05-10T00:35:12;12.90;;;2.65;;
24421;SDS011;12600;53.326;-6.298;2023-05-10T00:38:02;11.02;;;2.63;;
24421;SDS011;12600;53.326;-6.298;2023-05-10T00:40:51;8.68;;;2.47;;
24421;SDS011;12600;53.326;-6.298;2023-05-10T00:43:47;8.68;;;2.65;;
24421;SDS011;12600;53.326;-6.298;2023-05-10T00:46:37;7.88;;;2.40;;
24421;SDS011;12600;53.326;-6.298;2023-05-10T00:49:28;11.55;;;2.40;;
24421;SDS011;12600;53.326;-6.298;2023-05-10T00:52:18;9.07;;;2.40;;
24421;SDS011;12600;53.326;-6.298;2023-05-10T00:55:08;11.30;;;2.50;;
24421;SDS011;12600;53.326;-6.298;2023-05-10T00:57:59;8.77;;;3.05;;
24421;SDS011;12600;53.326;-6.298;2023-05-10T01:00:49;12.98;;;2.53;;
24421;SDS011;12600;53.326;-6.298;2023-05-10T01:03:39;15.48;;;4.50;;
24421;SDS011;12600;53.326;-6.298;2023-05-10T01:06:30;13.07;;;2.40;;
24421;SDS011;12600;53.326;-6.298;2023-05-10T01:09:19;10.85;;;2.30;;
24421;SDS011;12600;53.326;-6.298;2023-05-10T01:12:09;10.02;;;2.17;;
24421;SDS011;12600;53.326;-6.298;2023-05-10T01:14:59;8.30;;;2.17;;
24421;SDS011;12600;53.326;-6.298;2023-05-10T01:17:50;11.55;;;2.28;;
24421;SDS011;12600;53.326;-6.298;2023-05-10T01:20:41;10.82;;;2.15;;
24421;SDS011;12600;53.326;-6.298;2023-05-10T01:23:45;8.70;;;2.13;;
24421;SDS011;12600;53.326;-6.298;2023-05-10T01:27:15;5.88;;;2.08;;
24421;SDS011;12600;53.326;-6.298;2023-05-10T01:30:44;8.13;;;1.92;;
24421;SDS011;12600;53.326;-6.298;2023-05-10T01:33:58;10.20;;;2.03;;
24421;SDS011;12600;53.326;-6.298;2023-05-10T01:36:51;10.68;;;2.10;;
24421;SDS011;12600;53.326;-6.298;2023-05-10T01:39:47;6.03;;;1.63;;
24421;SDS011;12600;53.326;-6.298;2023-05-10T01:42:44;6.80;;;1.60;;
24421;SDS011;12600;53.326;-6.298;2023-05-10T01:45:40;7.82;;;1.70;;
24421;SDS011;12600;53.326;-6.298;2023-05-10T01:48:51;9.02;;;1.92;;
24421;SDS011;12600;53.326;-6.298;2023-05-10T01:51:48;7.43;;;1.92;;
24421;SDS011;12600;53.326;-6.298;2023-05-10T01:54:43;8.75;;;1.88;;
24421;SDS011;12600;53.326;-6.298;2023-05-10T01:57:42;7.55;;;2.28;;
24421;SDS011;12600;53.326;-6.298;2023-05-10T02:00:34;8.20;;;1.80;;
24421;SDS011;12600;53.326;-6.298;2023-05-10T02:03:25;7.35;;;2.08;;
24421;SDS011;12600;53.326;-6.298;2023-05-10T02:06:16;10.27;;;2.13;;
24421;SDS011;12600;53.326;-6.298;2023-05-10T02:09:10;6.63;;;1.70;;
24421;SDS011;12600;53.326;-6.298;2023-05-10T02:12:01;9.85;;;2.00;;
24421;SDS011;12600;53.326;-6.298;2023-05-10T02:14:54;10.23;;;1.98;;
24421;SDS011;12600;53.326;-6.298;2023-05-10T02:17:44;8.75;;;1.95;;
24421;SDS011;12600;53.326;-6.298;2023-05-10T02:20:35;10.98;;;2.50;;
24421;SDS011;12600;53.326;-6.298;2023-05-10T02:23:26;13.50;;;2.65;;
24421;SDS011;12600;53.326;-6.298;2023-05-10T02:26:19;10.68;;;1.83;;
24421;SDS011;12600;53.326;-6.298;2023-05-10T02:29:12;7.75;;;2.10;;
24421;SDS011;12600;53.326;-6.298;2023-05-10T02:32:02;9.80;;;2.03;;
24421;SDS011;12600;53.326;-6.298;2023-05-10T02:34:53;11.07;;;2.47;;
24421;SDS011;12600;53.326;-6.298;2023-05-10T02:37:44;10.90;;;2.00;;
24421;SDS011;12600;53.326;-6.298;2023-05-10T02:40:35;6.50;;;1.50;;
24421;SDS011;12600;53.326;-6.298;2023-05-10T02:43:26;11.32;;;2.58;;
24421;SDS011;12600;53.326;-6.298;2023-05-10T02:49:07;8.77;;;2.45;;
24421;SDS011;12600;53.326;-6.298;2023-05-10T02:51:58;15.50;;;2.35;;
24421;SDS011;12600;53.326;-6.298;2023-05-10T02:54:52;8.48;;;2.42;;
24421;SDS011;12600;53.326;-6.298;2023-05-10T02:57:48;9.45;;;2.20;;
24421;SDS011;12600;53.326;-6.298;2023-05-10T03:00:44;9.75;;;1.92;;
24421;SDS011;12600;53.326;-6.298;2023-05-10T03:03:34;7.50;;;2.00;;
24421;SDS011;12600;53.326;-6.298;2023-05-10T03:06:23;8.95;;;2.05;;
24421;SDS011;12600;53.326;-6.298;2023-05-10T03:09:13;9.15;;;2.05;;
24421;SDS011;12600;53.326;-6.298;2023-05-10T03:12:04;12.73;;;2.30;;
24421;SDS011;12600;53.326;-6.298;2023-05-10T03:15:00;9.00;;;1.80;;
24421;SDS011;12600;53.326;-6.298;2023-05-10T03:18:03;6.43;;;1.75;;
24421;SDS011;12600;53.326;-6.298;2023-05-10T03:20:59;14.15;;;2.03;;
24421;SDS011;12600;53.326;-6.298;2023-05-10T03:23:56;11.35;;;2.03;;
24421;SDS011;12600;53.326;-6.298;2023-05-10T03:26:54;7.03;;;2.00;;
24421;SDS011;12600;53.326;-6.298;2023-05-10T03:29:49;11.30;;;2.25;;
24421;SDS011;12600;53.326;-6.298;2023-05-10T03:32:40;8.52;;;1.75;;
24421;SDS011;12600;53.326;-6.298;2023-05-10T03:35:32;6.43;;;1.50;;
24421;SDS011;12600;53.326;-6.298;2023-05-10T03:38:22;9.95;;;1.58;;
24421;SDS011;12600;53.326;-6.298;2023-05-10T03:41:11;5.20;;;1.20;;
24421;SDS011;12600;53.326;-6.298;2023-05-10T03:44:01;8.68;;;1.55;;
24421;SDS011;12600;53.326;-6.298;2023-05-10T03:46:50;11.18;;;1.67;;
24421;SDS011;12600;53.326;-6.298;2023-05-10T03:49:39;12.13;;;2.00;;
24421;SDS011;12600;53.326;-6.298;2023-05-10T03:52:32;7.10;;;1.80;;
24421;SDS011;12600;53.326;-6.298;2023-05-10T03:55:21;7.65;;;1.67;;
24421;SDS011;12600;53.326;-6.298;2023-05-10T03:58:10;9.32;;;1.50;;
24421;SDS011;12600;53.326;-6.298;2023-05-10T04:01:00;15.40;;;2.88;;
24421;SDS011;12600;53.326;-6.298;2023-05-10T04:03:49;8.57;;;1.85;;
24421;SDS011;12600;53.326;-6.298;2023-05-10T04:06:39;11.02;;;2.20;;
24421;SDS011;12600;53.326;-6.298;2023-05-10T04:09:29;12.88;;;2.08;;
24421;SDS011;12600;53.326;-6.298;2023-05-10T04:12:19;9.38;;;1.80;;
24421;SDS011;12600;53.326;-6.298;2023-05-10T04:15:09;8.35;;;1.58;;
24421;SDS011;12600;53.326;-6.298;2023-05-10T04:17:58;9.13;;;2.15;;
24421;SDS011;12600;53.326;-6.298;2023-05-10T04:20:48;11.73;;;1.95;;
24421;SDS011;12600;53.326;-6.298;2023-05-10T04:23:37;13.93;;;1.88;;
24421;SDS011;12600;53.326;-6.298;2023-05-10T04:26:28;6.10;;;1.85;;
24421;SDS011;12600;53.326;-6.298;2023-05-10T04:29:17;7.88;;;1.73;;
24421;SDS011;12600;53.326;-6.298;2023-05-10T04:32:06;9.27;;;1.48;;
24421;SDS011;12600;53.326;-6.298;2023-05-10T04:34:57;9.73;;;1.88;;
24421;SDS011;12600;53.326;-6.298;2023-05-10T04:37:46;12.25;;;1.70;;
24421;SDS011;12600;53.326;-6.298;2023-05-10T04:40:35;9.75;;;1.65;;
24421;SDS011;12600;53.326;-6.298;2023-05-10T04:43:26;5.22;;;1.48;;
24421;SDS011;12600;53.326;-6.298;2023-05-10T04:46:15;6.28;;;1.40;;
24421;SDS011;12600;53.326;-6.298;2023-05-10T04:49:04;7.28;;;1.60;;
24421;SDS011;12600;53.326;-6.298;2023-05-10T04:51:53;7.22;;;1.33;;
24421;SDS011;12600;53.326;-6.298;2023-05-10T04:54:43;10.18;;;1.63;;
24421;SDS011;12600;53.326;-6.298;2023-05-10T04:57:32;7.93;;;1.80;;
24421;SDS011;12600;53.326;-6.298;2023-05-10T05:00:23;6.88;;;1.77;;
24421;SDS011;12600;53.326;-6.298;2023-05-10T05:03:12;7.78;;;1.63;;
24421;SDS011;12600;53.326;-6.298;2023-05-10T05:06:02;12.55;;;2.05;;
24421;SDS011;12600;53.326;-6.298;2023-05-10T05:08:52;13.45;;;2.30;;
24421;SDS011;12600;53.326;-6.298;2023-05-10T05:11:41;10.63;;;2.10;;
24421;SDS011;12600;53.326;-6.298;2023-05-10T05:14:30;6.10;;;1.90;;
24421;SDS011;12600;53.326;-6.298;2023-05-10T05:17:21;9.32;;;2.17;;
24421;SDS011;12600;53.326;-6.298;2023-05-10T05:20:11;8.73;;;2.40;;
24421;SDS011;12600;53.326;-6.298;2023-05-10T05:23:01;10.52;;;1.77;;
24421;SDS011;12600;53.326;-6.298;2023-05-10T05:25:51;10.68;;;2.58;;
24421;SDS011;12600;53.326;-6.298;2023-05-10T05:28:40;8.38;;;1.77;;
24421;SDS011;12600;53.326;-6.298;2023-05-10T05:31:29;9.98;;;2.17;;
24421;SDS011;12600;53.326;-6.298;2023-05-10T05:34:20;11.77;;;1.73;;
24421;SDS011;12600;53.326;-6.298;2023-05-10T05:37:12;8.75;;;2.00;;
24421;SDS011;12600;53.326;-6.298;2023-05-10T05:40:02;8.32;;;1.58;;
24421;SDS011;12600;53.326;-6.298;2023-05-10T05:42:53;6.13;;;1.70;;
24421;SDS011;12600;53.326;-6.298;2023-05-10T05:45:42;4.50;;;1.38;;
24421;SDS011;12600;53.326;-6.298;2023-05-10T05:48:32;8.57;;;1.52;;
24421;SDS011;12600;53.326;-6.298;2023-05-10T05:51:22;5.80;;;1.10;;
24421;SDS011;12600;53.326;-6.298;2023-05-10T05:54:12;7.00;;;1.30;;
24421;SDS011;12600;53.326;-6.298;2023-05-10T05:57:01;8.30;;;1.40;;
24421;SDS011;12600;53.326;-6.298;2023-05-10T05:59:50;7.85;;;1.70;;
24421;SDS011;12600;53.326;-6.298;2023-05-10T06:02:40;5.35;;;1.73;;
24421;SDS011;12600;53.326;-6.298;2023-05-10T06:05:30;9.82;;;2.20;;
24421;SDS011;12600;53.326;-6.298;2023-05-10T06:08:20;6.10;;;1.42;;
24421;SDS011;12600;53.326;-6.298;2023-05-10T06:11:10;9.68;;;2.17;;
24421;SDS011;12600;53.326;-6.298;2023-05-10T06:13:59;7.15;;;1.55;;
24421;SDS011;12600;53.326;-6.298;2023-05-10T06:16:49;7.25;;;1.42;;
24421;SDS011;12600;53.326;-6.298;2023-05-10T06:19:38;8.23;;;1.80;;
24421;SDS011;12600;53.326;-6.298;2023-05-10T06:22:27;6.13;;;2.15;;
24421;SDS011;12600;53.326;-6.298;2023-05-10T06:25:18;6.25;;;1.80;;
24421;SDS011;12600;53.326;-6.298;2023-05-10T06:28:07;7.07;;;1.70;;
24421;SDS011;12600;53.326;-6.298;2023-05-10T06:30:57;5.30;;;1.92;;
24421;SDS011;12600;53.326;-6.298;2023-05-10T06:33:46;7.38;;;1.92;;
24421;SDS011;12600;53.326;-6.298;2023-05-10T06:36:35;5.70;;;1.60;;
24421;SDS011;12600;53.326;-6.298;2023-05-10T06:39:25;8.68;;;1.10;;
24421;SDS011;12600;53.326;-6.298;2023-05-10T06:42:15;4.72;;;1.55;;
24421;SDS011;12600;53.326;-6.298;2023-05-10T06:45:06;6.13;;;2.15;;
24421;SDS011;12600;53.326;-6.298;2023-05-10T06:47:57;9.00;;;1.92;;
24421;SDS011;12600;53.326;-6.298;2023-05-10T06:50:46;6.38;;;1.25;;
24421;SDS011;12600;53.326;-6.298;2023-05-10T06:53:36;5.60;;;1.33;;
24421;SDS011;12600;53.326;-6.298;2023-05-10T06:56:28;4.63;;;1.00;;
24421;SDS011;12600;53.326;-6.298;2023-05-10T06:59:18;6.35;;;1.00;;
24421;SDS011;12600;53.326;-6.298;2023-05-10T07:02:08;7.70;;;1.10;;
24421;SDS011;12600;53.326;-6.298;2023-05-10T07:04:58;7.60;;;1.33;;
24421;SDS011;12600;53.326;-6.298;2023-05-10T07:07:50;4.47;;;1.20;;
24421;SDS011;12600;53.326;-6.298;2023-05-10T07:10:39;9.02;;;1.20;;
24421;SDS011;12600;53.326;-6.298;2023-05-10T07:13:29;3.78;;;1.00;;
24421;SDS011;12600;53.326;-6.298;2023-05-10T07:16:20;5.32;;;1.17;;
24421;SDS011;12600;53.326;-6.298;2023-05-10T07:19:10;5.70;;;1.00;;
24421;SDS011;12600;53.326;-6.298;2023-05-10T07:21:59;8.40;;;1.23;;
24421;SDS011;12600;53.326;-6.298;2023-05-10T07:24:49;5.78;;;1.80;;
24421;SDS011;12600;53.326;-6.298;2023-05-10T07:27:38;5.78;;;1.50;;
24421;SDS011;12600;53.326;-6.298;2023-05-10T07:30:27;4.25;;;1.48;;
24421;SDS011;12600;53.326;-6.298;2023-05-10T07:33:18;7.28;;;1.90;;
24421;SDS011;12600;53.326;-6.298;2023-05-10T07:36:07;4.28;;;1.77;;
24421;SDS011;12600;53.326;-6.298;2023-05-10T07:38:57;4.70;;;1.58;;
24421;SDS011;12600;53.326;-6.298;2023-05-10T07:41:46;2.60;;;0.80;;
24421;SDS011;12600;53.326;-6.298;2023-05-10T07:44:36;3.58;;;1.33;;
24421;SDS011;12600;53.326;-6.298;2023-05-10T07:47:25;6.05;;;1.33;;
24421;SDS011;12600;53.326;-6.298;2023-05-10T07:50:16;2.42;;;1.08;;
24421;SDS011;12600;53.326;-6.298;2023-05-10T07:53:05;1.75;;;1.10;;
24421;SDS011;12600;53.326;-6.298;2023-05-10T07:55:57;3.60;;;0.95;;
24421;SDS011;12600;53.326;-6.298;2023-05-10T07:58:46;4.55;;;1.23;;
24421;SDS011;12600;53.326;-6.298;2023-05-10T08:01:36;8.23;;;1.23;;
24421;SDS011;12600;53.326;-6.298;2023-05-10T08:04:25;3.53;;;1.10;;
24421;SDS011;12600;53.326;-6.298;2023-05-10T08:07:16;5.38;;;1.23;;
24421;SDS011;12600;53.326;-6.298;2023-05-10T08:10:06;7.70;;;1.00;;
24421;SDS011;12600;53.326;-6.298;2023-05-10T08:12:58;4.20;;;1.17;;
24421;SDS011;12600;53.326;-6.298;2023-05-10T08:15:47;1.98;;;0.80;;
24421;SDS011;12600;53.326;-6.298;2023-05-10T08:18:36;2.60;;;1.17;;
24421;SDS011;12600;53.326;-6.298;2023-05-10T08:21:26;5.70;;;1.55;;
24421;SDS011;12600;53.326;-6.298;2023-05-10T08:24:17;4.35;;;0.85;;
24421;SDS011;12600;53.326;-6.298;2023-05-10T08:27:06;4.68;;;0.80;;
24421;SDS011;12600;53.326;-6.298;2023-05-10T08:29:56;4.53;;;1.00;;
24421;SDS011;12600;53.326;-6.298;2023-05-10T08:32:45;5.05;;;1.02;;
24421;SDS011;12600;53.326;-6.298;2023-05-10T08:35:35;4.60;;;1.00;;
24421;SDS011;12600;53.326;-6.298;2023-05-10T08:38:24;3.63;;;1.20;;
24421;SDS011;12600;53.326;-6.298;2023-05-10T08:41:15;3.10;;;1.00;;
24421;SDS011;12600;53.326;-6.298;2023-05-10T08:44:05;4.07;;;1.15;;
24421;SDS011;12600;53.326;-6.298;2023-05-10T08:46:57;5.28;;;1.20;;
24421;SDS011;12600;53.326;-6.298;2023-05-10T08:49:50;3.10;;;1.58;;
24421;SDS011;12600;53.326;-6.298;2023-05-10T08:52:40;5.70;;;1.38;;
24421;SDS011;12600;53.326;-6.298;2023-05-10T08:55:30;3.78;;;0.80;;
24421;SDS011;12600;53.326;-6.298;2023-05-10T08:58:25;6.80;;;1.05;;
24421;SDS011;12600;53.326;-6.298;2023-05-10T09:01:14;5.55;;;1.08;;
24421;SDS011;12600;53.326;-6.298;2023-05-10T09:04:06;3.47;;;0.90;;
24421;SDS011;12600;53.326;-6.298;2023-05-10T09:06:55;2.95;;;0.80;;
24421;SDS011;12600;53.326;-6.298;2023-05-10T09:09:45;3.05;;;0.90;;
24421;SDS011;12600;53.326;-6.298;2023-05-10T09:12:35;3.95;;;0.80;;
24421;SDS011;12600;53.326;-6.298;2023-05-10T09:15:26;4.75;;;1.17;;
24421;SDS011;12600;53.326;-6.298;2023-05-10T09:18:15;4.68;;;1.00;;
24421;SDS011;12600;53.326;-6.298;2023-05-10T09:21:05;3.85;;;0.90;;
24421;SDS011;12600;53.326;-6.298;2023-05-10T09:23:54;3.20;;;0.75;;
24421;SDS011;12600;53.326;-6.298;2023-05-10T09:26:45;2.83;;;0.90;;
24421;SDS011;12600;53.326;-6.298;2023-05-10T09:29:39;3.58;;;0.68;;
24421;SDS011;12600;53.326;-6.298;2023-05-10T09:32:38;2.83;;;0.75;;
24421;SDS011;12600;53.326;-6.298;2023-05-10T09:35:30;2.35;;;0.90;;
24421;SDS011;12600;53.326;-6.298;2023-05-10T09:38:21;2.08;;;0.63;;
24421;SDS011;12600;53.326;-6.298;2023-05-10T09:41:15;4.95;;;1.20;;
24421;SDS011;12600;53.326;-6.298;2023-05-10T09:44:05;3.80;;;1.00;;
24421;SDS011;12600;53.326;-6.298;2023-05-10T09:46:56;5.03;;;1.05;;
24421;SDS011;12600;53.326;-6.298;2023-05-10T09:49:50;2.65;;;1.02;;
24421;SDS011;12600;53.326;-6.298;2023-05-10T09:52:47;3.28;;;1.15;;
24421;SDS011;12600;53.326;-6.298;2023-05-10T09:55:39;3.78;;;1.27;;
24421;SDS011;12600;53.326;-6.298;2023-05-10T09:58:32;3.25;;;0.82;;
24421;SDS011;12600;53.326;-6.298;2023-05-10T10:01:26;1.85;;;0.70;;
24421;SDS011;12600;53.326;-6.298;2023-05-10T10:04:16;3.15;;;0.73;;
24421;SDS011;12600;53.326;-6.298;2023-05-10T10:07:07;7.38;;;0.82;;
24421;SDS011;12600;53.326;-6.298;2023-05-10T10:09:56;2.10;;;0.70;;
24421;SDS011;12600;53.326;-6.298;2023-05-10T10:12:48;1.83;;;0.85;;
24421;SDS011;12600;53.326;-6.298;2023-05-10T10:15:38;1.73;;;0.80;;
24421;SDS011;12600;53.326;-6.298;2023-05-10T10:18:27;5.55;;;0.88;;
24421;SDS011;12600;53.326;-6.298;2023-05-10T10:21:18;2.08;;;0.80;;
24421;SDS011;12600;53.326;-6.298;2023-05-10T10:24:09;4.78;;;0.90;;
24421;SDS011;12600;53.326;-6.298;2023-05-10T10:27:00;3.40;;;1.10;;
24421;SDS011;12600;53.326;-6.298;2023-05-10T10:30:01;2.45;;;1.05;;
24421;SDS011;12600;53.326;-6.298;2023-05-10T10:36:39;1.83;;;0.70;;
24421;SDS011;12600;53.326;-6.298;2023-05-10T10:39:31;3.22;;;0.98;;
24421;SDS011;12600;53.326;-6.298;2023-05-10T10:45:38;4.90;;;1.00;;
24421;SDS011;12600;53.326;-6.298;2023-05-10T10:48:28;2.72;;;0.70;;
24421;SDS011;12600;53.326;-6.298;2023-05-10T10:51:17;2.28;;;0.70;;
24421;SDS011;12600;53.326;-6.298;2023-05-10T10:54:10;3.58;;;0.90;;
24421;SDS011;12600;53.326;-6.298;2023-05-10T10:57:13;2.97;;;0.70;;
24421;SDS011;12600;53.326;-6.298;2023-05-10T11:00:19;2.15;;;0.80;;
24421;SDS011;12600;53.326;-6.298;2023-05-10T11:03:15;2.00;;;0.60;;
24421;SDS011;12600;53.326;-6.298;2023-05-10T11:06:06;1.80;;;0.80;;
24421;SDS011;12600;53.326;-6.298;2023-05-10T11:08:56;2.95;;;0.90;;
24421;SDS011;12600;53.326;-6.298;2023-05-10T11:11:48;3.28;;;0.80;;
24421;SDS011;12600;53.326;-6.298;2023-05-10T11:14:44;2.53;;;0.68;;
24421;SDS011;12600;53.326;-6.298;2023-05-10T11:17:38;2.10;;;0.70;;
24421;SDS011;12600;53.326;-6.298;2023-05-10T11:20:28;2.22;;;0.75;;
24421;SDS011;12600;53.326;-6.298;2023-05-10T11:23:30;2.85;;;0.68;;
24421;SDS011;12600;53.326;-6.298;2023-05-10T11:26:20;1.52;;;0.63;;
24421;SDS011;12600;53.326;-6.298;2023-05-10T11:29:12;3.55;;;0.95;;
24421;SDS011;12600;53.326;-6.298;2023-05-10T11:32:03;3.25;;;0.80;;
24421;SDS011;12600;53.326;-6.298;2023-05-10T11:37:44;2.47;;;0.90;;
24421;SDS011;12600;53.326;-6.298;2023-05-10T11:40:37;3.38;;;1.10;;
24421;SDS011;12600;53.326;-6.298;2023-05-10T11:43:27;4.18;;;1.00;;
24421;SDS011;12600;53.326;-6.298;2023-05-10T11:46:18;3.70;;;1.08;;
24421;SDS011;12600;53.326;-6.298;2023-05-10T11:49:10;4.13;;;1.30;;
24421;SDS011;12600;53.326;-6.298;2023-05-10T11:52:03;3.50;;;1.10;;
24421;SDS011;12600;53.326;-6.298;2023-05-10T11:54:54;3.83;;;0.90;;
24421;SDS011;12600;53.326;-6.298;2023-05-10T11:57:44;3.08;;;0.85;;
24421;SDS011;12600;53.326;-6.298;2023-05-10T12:00:33;2.50;;;0.70;;
24421;SDS011;12600;53.326;-6.298;2023-05-10T12:03:23;3.78;;;0.90;;
24421;SDS011;12600;53.326;-6.298;2023-05-10T12:06:14;1.55;;;0.80;;
24421;SDS011;12600;53.326;-6.298;2023-05-10T12:09:05;3.03;;;0.82;;
24421;SDS011;12600;53.326;-6.298;2023-05-10T12:11:55;3.92;;;1.40;;
24421;SDS011;12600;53.326;-6.298;2023-05-10T12:14:47;3.65;;;1.20;;
24421;SDS011;12600;53.326;-6.298;2023-05-10T12:17:38;3.30;;;1.27;;
24421;SDS011;12600;53.326;-6.298;2023-05-10T12:20:29;4.47;;;1.38;;
24421;SDS011;12600;53.326;-6.298;2023-05-10T12:23:20;3.88;;;1.02;;
24421;SDS011;12600;53.326;-6.298;2023-05-10T12:26:09;3.97;;;1.08;;
24421;SDS011;12600;53.326;-6.298;2023-05-10T12:29:11;2.25;;;0.90;;
24421;SDS011;12600;53.326;-6.298;2023-05-10T12:32:02;3.20;;;1.00;;
24421;SDS011;12600;53.326;-6.298;2023-05-10T12:34:52;2.03;;;1.17;;
24421;SDS011;12600;53.326;-6.298;2023-05-10T12:37:41;4.53;;;1.70;;
24421;SDS011;12600;53.326;-6.298;2023-05-10T12:40:32;5.07;;;1.52;;
24421;SDS011;12600;53.326;-6.298;2023-05-10T12:43:22;3.90;;;1.33;;
24421;SDS011;12600;53.326;-6.298;2023-05-10T12:46:12;1.80;;;1.08;;
24421;SDS011;12600;53.326;-6.298;2023-05-10T12:49:03;2.20;;;1.10;;
24421;SDS011;12600;53.326;-6.298;2023-05-10T12:51:55;4.95;;;1.30;;
24421;SDS011;12600;53.326;-6.298;2023-05-10T12:54:45;4.30;;;1.00;;
24421;SDS011;12600;53.326;-6.298;2023-05-10T12:57:36;3.00;;;0.90;;
24421;SDS011;12600;53.326;-6.298;2023-05-10T13:00:25;2.60;;;0.73;;
24421;SDS011;12600;53.326;-6.298;2023-05-10T13:03:15;3.92;;;0.90;;
24421;SDS011;12600;53.326;-6.298;2023-05-10T13:06:04;2.55;;;1.05;;
24421;SDS011;12600;53.326;-6.298;2023-05-10T13:08:54;4.45;;;1.90;;
24421;SDS011;12600;53.326;-6.298;2023-05-10T13:11:44;3.25;;;1.70;;
24421;SDS011;12600;53.326;-6.298;2023-05-10T13:14:36;5.88;;;2.97;;
24421;SDS011;12600;53.326;-6.298;2023-05-10T13:17:27;10.43;;;4.45;;
24421;SDS011;12600;53.326;-6.298;2023-05-10T13:20:19;8.27;;;2.65;;
24421;SDS011;12600;53.326;-6.298;2023-05-10T13:23:09;8.02;;;2.88;;
24421;SDS011;12600;53.326;-6.298;2023-05-10T13:25:58;3.10;;;1.35;;
24421;SDS011;12600;53.326;-6.298;2023-05-10T13:28:47;5.32;;;2.40;;
24421;SDS011;12600;53.326;-6.298;2023-05-10T13:31:40;6.10;;;2.05;;
24421;SDS011;12600;53.326;-6.298;2023-05-10T13:34:29;4.03;;;1.20;;
24421;SDS011;12600;53.326;-6.298;2023-05-10T13:37:19;3.67;;;1.30;;
24421;SDS011;12600;53.326;-6.298;2023-05-10T13:40:08;3.22;;;1.40;;
24421;SDS011;12600;53.326;-6.298;2023-05-10T13:42:59;5.00;;;1.30;;
24421;SDS011;12600;53.326;-6.298;2023-05-10T13:45:49;3.03;;;1.45;;
24421;SDS011;12600;53.326;-6.298;2023-05-10T13:48:39;3.97;;;1.25;;
24421;SDS011;12600;53.326;-6.298;2023-05-10T13:51:29;5.90;;;1.45;;
24421;SDS011;12600;53.326;-6.298;2023-05-10T13:54:19;1.98;;;1.20;;
24421;SDS011;12600;53.326;-6.298;2023-05-10T13:57:09;5.20;;;1.30;;
24421;SDS011;12600;53.326;-6.298;2023-05-10T14:00:00;2.38;;;1.10;;
24421;SDS011;12600;53.326;-6.298;2023-05-10T14:02:54;8.60;;;1.45;;
24421;SDS011;12600;53.326;-6.298;2023-05-10T14:05:45;7.63;;;1.45;;
24421;SDS011;12600;53.326;-6.298;2023-05-10T14:08:34;4.15;;;1.00;;
24421;SDS011;12600;53.326;-6.298;2023-05-10T14:11:24;1.60;;;0.60;;
24421;SDS011;12600;53.326;-6.298;2023-05-10T14:14:13;1.98;;;0.70;;
24421;SDS011;12600;53.326;-6.298;2023-05-10T14:17:02;2.63;;;0.90;;
24421;SDS011;12600;53.326;-6.298;2023-05-10T14:19:52;5.93;;;1.10;;
24421;SDS011;12600;53.326;-6.298;2023-05-10T14:22:43;2.95;;;1.20;;
24421;SDS011;12600;53.326;-6.298;2023-05-10T14:25:32;3.53;;;1.20;;
24421;SDS011;12600;53.326;-6.298;2023-05-10T14:28:22;3.50;;;1.42;;
24421;SDS011;12600;53.326;-6.298;2023-05-10T14:31:12;6.10;;;1.40;;
24421;SDS011;12600;53.326;-6.298;2023-05-10T14:34:01;4.88;;;1.00;;
24421;SDS011;12600;53.326;-6.298;2023-05-10T14:36:50;5.10;;;1.25;;
24421;SDS011;12600;53.326;-6.298;2023-05-10T14:39:41;2.80;;;1.10;;
24421;SDS011;12600;53.326;-6.298;2023-05-10T14:42:30;2.47;;;0.90;;
24421;SDS011;12600;53.326;-6.298;2023-05-10T14:45:20;2.22;;;0.90;;
24421;SDS011;12600;53.326;-6.298;2023-05-10T14:48:09;1.60;;;0.88;;
24421;SDS011;12600;53.326;-6.298;2023-05-10T14:51:02;2.20;;;1.05;;
24421;SDS011;12600;53.326;-6.298;2023-05-10T14:53:51;4.05;;;1.10;;
24421;SDS011;12600;53.326;-6.298;2023-05-10T14:56:42;4.65;;;1.58;;
24421;SDS011;12600;53.326;-6.298;2023-05-10T14:59:32;6.60;;;1.40;;
24421;SDS011;12600;53.326;-6.298;2023-05-10T15:02:21;4.38;;;1.10;;
24421;SDS011;12600;53.326;-6.298;2023-05-10T15:05:11;2.97;;;1.02;;
24421;SDS011;12600;53.326;-6.298;2023-05-10T15:08:01;4.75;;;1.25;;
24421;SDS011;12600;53.326;-6.298;2023-05-10T15:10:51;2.40;;;1.00;;
24421;SDS011;12600;53.326;-6.298;2023-05-10T15:13:44;4.30;;;1.15;;
24421;SDS011;12600;53.326;-6.298;2023-05-10T15:16:33;2.72;;;0.93;;
24421;SDS011;12600;53.326;-6.298;2023-05-10T15:19:22;3.35;;;1.10;;
24421;SDS011;12600;53.326;-6.298;2023-05-10T15:22:12;3.03;;;1.20;;
24421;SDS011;12600;53.326;-6.298;2023-05-10T15:25:01;2.72;;;1.30;;
24421;SDS011;12600;53.326;-6.298;2023-05-10T15:27:54;3.03;;;1.30;;
24421;SDS011;12600;53.326;-6.298;2023-05-10T15:30:44;2.75;;;1.30;;
24421;SDS011;12600;53.326;-6.298;2023-05-10T15:33:33;3.97;;;1.08;;
24421;SDS011;12600;53.326;-6.298;2023-05-10T15:36:25;6.22;;;1.90;;
24421;SDS011;12600;53.326;-6.298;2023-05-10T15:39:14;4.57;;;1.50;;
24421;SDS011;12600;53.326;-6.298;2023-05-10T15:42:03;5.70;;;1.80;;
24421;SDS011;12600;53.326;-6.298;2023-05-10T15:44:53;5.80;;;1.50;;
24421;SDS011;12600;53.326;-6.298;2023-05-10T15:47:44;6.07;;;1.33;;
24421;SDS011;12600;53.326;-6.298;2023-05-10T15:50:33;4.20;;;1.42;;
24421;SDS011;12600;53.326;-6.298;2023-05-10T15:53:22;3.35;;;1.63;;
24421;SDS011;12600;53.326;-6.298;2023-05-10T15:56:12;3.78;;;1.40;;
24421;SDS011;12600;53.326;-6.298;2023-05-10T15:59:02;3.22;;;1.70;;
24421;SDS011;12600;53.326;-6.298;2023-05-10T16:01:52;4.50;;;1.30;;
24421;SDS011;12600;53.326;-6.298;2023-05-10T16:04:43;4.93;;;1.40;;
24421;SDS011;12600;53.326;-6.298;2023-05-10T16:07:32;4.22;;;1.60;;
24421;SDS011;12600;53.326;-6.298;2023-05-10T16:10:22;4.53;;;1.30;;
24421;SDS011;12600;53.326;-6.298;2023-05-10T16:13:11;4.13;;;1.80;;
24421;SDS011;12600;53.326;-6.298;2023-05-10T16:18:55;3.35;;;1.25;;
24421;SDS011;12600;53.326;-6.298;2023-05-10T16:21:48;5.90;;;1.42;;
24421;SDS011;12600;53.326;-6.298;2023-05-10T16:24:38;5.97;;;1.63;;
24421;SDS011;12600;53.326;-6.298;2023-05-10T16:27:28;3.83;;;1.30;;
24421;SDS011;12600;53.326;-6.298;2023-05-10T16:30:19;7.30;;;1.40;;
24421;SDS011;12600;53.326;-6.298;2023-05-10T16:33:10;5.97;;;1.20;;
24421;SDS011;12600;53.326;-6.298;2023-05-10T16:35:59;5.95;;;1.67;;
24421;SDS011;12600;53.326;-6.298;2023-05-10T16:38:50;6.50;;;2.10;;
24421;SDS011;12600;53.326;-6.298;2023-05-10T16:41:39;5.97;;;1.92;;
24421;SDS011;12600;53.326;-6.298;2023-05-10T16:44:29;5.07;;;1.50;;
24421;SDS011;12600;53.326;-6.298;2023-05-10T16:47:18;5.85;;;1.33;;
24421;SDS011;12600;53.326;-6.298;2023-05-10T16:50:08;6.38;;;1.65;;
24421;SDS011;12600;53.326;-6.298;2023-05-10T16:52:58;6.38;;;1.80;;
24421;SDS011;12600;53.326;-6.298;2023-05-10T16:55:51;5.22;;;1.52;;
24421;SDS011;12600;53.326;-6.298;2023-05-10T16:58:40;7.45;;;1.90;;
24421;SDS011;12600;53.326;-6.298;2023-05-10T17:01:30;6.97;;;1.90;;
24421;SDS011;12600;53.326;-6.298;2023-05-10T17:04:21;8.75;;;1.83;;
24421;SDS011;12600;53.326;-6.298;2023-05-10T17:07:10;6.55;;;1.85;;
24421;SDS011;12600;53.326;-6.298;2023-05-10T17:10:00;7.53;;;1.65;;